Time;durP1;ratioP1;P1;durP2;ratioP2;P2;SDS_P1;SDS_P2;PMS_P1;PMS_P2;Temp;Humidity;BMP_temperature;BMP_pressure;BME280_temperature;BME280_humidity;BME280_pressure;Samples;Min_cycle;Max_cycle;Signal;HPM_P1;HPM_P2
2022/10/16 00:00:43;;;;;;;5.97;5.07;;;13.00;99.90;;;;;;5018309;28;20018;-50
2022/10/16 00:03:10;;;;;;;8.43;5.70;;;13.00;99.90;;;;;;5019178;28;20030;-50
2022/10/16 00:05:40;;;;;;;7.57;5.43;;;13.00;99.90;;;;;;5018042;28;20436;-50
2022/10/16 00:08:07;;;;;;;9.60;6.20;;;13.00;99.90;;;;;;5024144;28;20034;-56
2022/10/16 00:10:33;;;;;;;10.20;5.28;;;12.90;99.90;;;;;;5020641;28;20014;-51
2022/10/16 00:12:58;;;;;;;7.30;6.25;;;12.90;99.90;;;;;;5032193;28;20041;-50
2022/10/16 00:15:24;;;;;;;7.75;5.95;;;12.90;99.90;;;;;;5022853;28;20545;-54
2022/10/16 00:17:49;;;;;;;6.68;5.35;;;12.90;99.90;;;;;;5017786;28;20029;-50
2022/10/16 00:20:15;;;;;;;8.93;6.07;;;12.90;99.90;;;;;;5024733;28;20022;-50
2022/10/16 00:22:41;;;;;;;5.88;5.22;;;12.90;99.90;;;;;;5016562;28;20034;-50
2022/10/16 00:25:06;;;;;;;6.35;5.25;;;12.90;99.90;;;;;;5021381;28;20037;-55
2022/10/16 00:27:33;;;;;;;8.10;5.68;;;12.80;99.90;;;;;;5020513;28;20038;-50
2022/10/16 00:29:59;;;;;;;10.65;6.10;;;12.80;99.90;;;;;;5017665;28;20030;-50
2022/10/16 00:32:24;;;;;;;6.97;5.88;;;12.80;99.90;;;;;;5022004;28;20032;-55
2022/10/16 00:34:50;;;;;;;7.93;5.43;;;12.80;99.90;;;;;;5017614;28;20022;-50
2022/10/16 00:37:15;;;;;;;11.50;6.03;;;12.80;99.90;;;;;;5023272;28;20029;-50
2022/10/16 00:39:41;;;;;;;6.85;4.55;;;12.80;99.90;;;;;;5016805;28;20076;-53
2022/10/16 00:42:09;;;;;;;6.22;4.53;;;12.80;99.90;;;;;;5025577;28;20148;-52
2022/10/16 00:44:55;;;;;;;6.60;5.40;;;12.80;99.90;;;;;;5014017;28;20076;-50
2022/10/16 00:47:24;;;;;;;6.63;4.05;;;12.80;99.90;;;;;;5011082;28;20022;-52
2022/10/16 00:49:53;;;;;;;8.43;4.07;;;12.80;99.90;;;;;;5014077;28;20026;-53
2022/10/16 00:52:19;;;;;;;5.22;3.90;;;12.80;99.90;;;;;;5014951;28;20442;-50
2022/10/16 00:54:45;;;;;;;7.35;3.72;;;12.80;99.90;;;;;;5020527;28;20030;-50
2022/10/16 00:57:11;;;;;;;4.78;3.65;;;12.80;99.90;;;;;;5016849;28;20121;-55
2022/10/16 00:59:39;;;;;;;7.22;3.67;;;12.80;99.90;;;;;;5016148;28;20104;-50
2022/10/16 01:02:06;;;;;;;3.67;2.92;;;12.80;99.90;;;;;;5008142;28;20152;-51
2022/10/16 01:04:37;;;;;;;5.07;3.08;;;12.80;99.90;;;;;;5013880;28;20025;-55
2022/10/16 01:07:15;;;;;;;6.45;3.03;;;12.80;99.90;;;;;;5023027;28;20488;-51
2022/10/16 01:10:16;;;;;;;8.38;2.80;;;12.80;99.90;;;;;;5023837;28;20068;-50
2022/10/16 01:13:04;;;;;;;5.05;2.50;;;12.80;99.90;;;;;;5016480;28;20495;-52
2022/10/16 01:15:41;;;;;;;8.98;2.65;;;12.80;99.90;;;;;;5014635;28;20036;-50
2022/10/16 01:18:16;;;;;;;3.47;2.33;;;12.80;99.90;;;;;;5017293;28;20037;-52
2022/10/16 01:21:08;;;;;;;12.13;3.45;;;12.70;99.90;;;;;;5026916;28;20028;-54
2022/10/16 01:24:08;;;;;;;5.72;2.60;;;12.70;99.90;;;;;;5012658;28;20037;-49
2022/10/16 01:27:25;;;;;;;6.05;2.80;;;12.70;99.90;;;;;;5014096;28;20503;-52
2022/10/16 01:30:01;;;;;;;4.77;2.70;;;12.70;99.90;;;;;;5003037;28;20045;-54
2022/10/16 01:32:30;;;;;;;;;;;12.70;99.90;;;;;;5007495;28;20390;-51
2022/10/16 01:35:04;;;;;;;3.95;2.60;;;12.70;99.90;;;;;;5021524;28;20006;-53
2022/10/16 01:37:38;;;;;;;3.63;2.05;;;12.70;99.90;;;;;;5020250;28;20079;-56
2022/10/16 01:40:11;;;;;;;3.85;2.45;;;12.70;99.90;;;;;;5020995;28;20033;-50
2022/10/16 01:42:50;;;;;;;6.30;2.38;;;12.70;99.90;;;;;;5018667;28;20044;-54
2022/10/16 01:45:18;;;;;;;4.57;2.28;;;12.60;99.90;;;;;;5017421;28;20029;-50
2022/10/16 01:47:45;;;;;;;4.95;2.20;;;12.60;99.90;;;;;;5020142;28;20045;-50
2022/10/16 01:50:13;;;;;;;2.75;2.15;;;12.60;99.90;;;;;;5023827;28;20485;-51
2022/10/16 01:52:41;;;;;;;4.25;2.28;;;12.60;99.90;;;;;;5019598;28;20520;-50
2022/10/16 01:55:10;;;;;;;4.47;2.22;;;12.60;99.90;;;;;;5027910;28;20034;-53
2022/10/16 01:57:40;;;;;;;4.18;2.65;;;12.50;99.90;;;;;;5019754;28;20028;-54
2022/10/16 02:00:11;;;;;;;2.20;1.90;;;12.50;99.90;;;;;;5022387;28;20040;-55
2022/10/16 02:02:44;;;;;;;4.55;1.95;;;12.50;99.90;;;;;;5021852;28;20030;-54
2022/10/16 02:05:17;;;;;;;2.47;2.05;;;12.50;99.90;;;;;;5019829;28;20079;-52
2022/10/16 02:07:43;;;;;;;4.97;1.88;;;12.40;99.90;;;;;;5021655;28;20033;-53
2022/10/16 02:10:10;;;;;;;3.45;2.38;;;12.40;99.90;;;;;;5022756;28;20053;-50
2022/10/16 02:12:39;;;;;;;4.20;2.13;;;12.40;99.90;;;;;;5022705;28;20048;-50
2022/10/16 02:15:06;;;;;;;4.78;2.17;;;12.40;99.90;;;;;;5020047;28;20038;-51
2022/10/16 02:17:31;;;;;;;3.70;2.13;;;12.40;99.90;;;;;;5010303;28;20469;-51
2022/10/16 02:19:59;;;;;;;3.72;2.20;;;12.30;99.90;;;;;;5023509;28;20101;-52
2022/10/16 02:22:38;;;;;;;6.13;1.70;;;12.30;99.90;;;;;;5020066;28;20030;-52
2022/10/16 02:25:18;;;;;;;4.43;1.85;;;12.30;99.90;;;;;;5020245;28;20041;-51
2022/10/16 02:27:46;;;;;;;4.30;2.05;;;12.20;99.90;;;;;;5017865;28;20377;-51
2022/10/16 02:30:28;;;;;;;5.88;2.30;;;12.20;99.90;;;;;;5017700;28;20025;-57
2022/10/16 02:32:56;;;;;;;2.90;1.42;;;12.20;99.90;;;;;;5016894;28;20449;-55
2022/10/16 02:35:24;;;;;;;4.00;1.75;;;12.20;99.90;;;;;;5023266;28;20082;-50
2022/10/16 02:37:50;;;;;;;4.32;1.90;;;12.10;99.90;;;;;;5016893;28;20068;-51
2022/10/16 02:40:17;;;;;;;3.15;1.77;;;12.10;99.90;;;;;;5020832;28;20022;-50
2022/10/16 02:42:43;;;;;;;5.50;1.90;;;12.10;99.90;;;;;;5018597;28;20018;-51
2022/10/16 02:45:11;;;;;;;4.35;2.17;;;12.10;99.90;;;;;;5022137;28;20137;-51
2022/10/16 02:47:37;;;;;;;3.00;1.50;;;12.10;99.90;;;;;;5024092;28;20029;-52
2022/10/16 02:50:04;;;;;;;1.75;1.30;;;12.10;99.90;;;;;;5020452;28;20044;-51
2022/10/16 02:52:29;;;;;;;6.72;2.22;;;12.10;99.90;;;;;;5022961;28;20455;-52
2022/10/16 02:54:55;;;;;;;3.00;1.30;;;12.00;99.90;;;;;;5023387;28;20057;-57
2022/10/16 02:57:20;;;;;;;4.13;1.70;;;12.00;99.90;;;;;;5015818;28;20136;-51
2022/10/16 02:59:46;;;;;;;3.88;1.50;;;12.00;99.90;;;;;;5022357;28;20038;-51
2022/10/16 03:02:12;;;;;;;2.92;1.75;;;12.00;99.90;;;;;;5011621;28;20522;-53
2022/10/16 03:04:38;;;;;;;2.97;1.50;;;12.00;99.90;;;;;;5018401;28;20029;-54
2022/10/16 03:07:03;;;;;;;3.13;1.88;;;11.90;99.90;;;;;;5019830;28;20052;-53
2022/10/16 03:09:29;;;;;;;3.10;1.60;;;11.90;99.90;;;;;;5017182;28;20025;-57
2022/10/16 03:11:54;;;;;;;3.22;1.25;;;11.90;99.90;;;;;;5019651;28;20378;-50
2022/10/16 03:14:20;;;;;;;3.95;1.60;;;11.90;99.90;;;;;;5024412;28;20032;-50
2022/10/16 03:16:45;;;;;;;1.88;1.30;;;11.90;99.90;;;;;;5018814;28;20030;-55
2022/10/16 03:19:11;;;;;;;7.28;2.10;;;11.80;99.90;;;;;;5025285;28;20034;-50
2022/10/16 03:21:37;;;;;;;3.92;1.45;;;11.80;99.90;;;;;;5019280;28;20025;-50
2022/10/16 03:24:02;;;;;;;5.30;1.52;;;11.80;99.90;;;;;;5024902;28;20157;-51
2022/10/16 03:26:28;;;;;;;6.18;1.30;;;11.70;99.90;;;;;;5021849;28;20373;-52
2022/10/16 03:28:53;;;;;;;2.03;0.95;;;11.80;99.90;;;;;;5018224;28;20026;-50
2022/10/16 03:31:19;;;;;;;2.72;1.33;;;11.70;99.90;;;;;;5022918;28;20026;-52
2022/10/16 03:33:44;;;;;;;7.60;2.15;;;11.60;99.90;;;;;;5014395;28;20030;-51
2022/10/16 03:36:10;;;;;;;3.08;1.20;;;11.70;99.90;;;;;;5019797;28;20022;-53
2022/10/16 03:38:35;;;;;;;3.05;1.23;;;11.60;99.90;;;;;;5017191;28;20546;-54
2022/10/16 03:41:01;;;;;;;2.88;1.60;;;11.60;99.90;;;;;;5026357;28;20060;-50
2022/10/16 03:43:27;;;;;;;7.75;1.77;;;11.60;99.90;;;;;;5017983;28;20071;-53
2022/10/16 03:45:52;;;;;;;2.08;1.13;;;11.60;99.90;;;;;;5018740;28;20076;-56
2022/10/16 03:48:19;;;;;;;3.88;1.85;;;11.60;99.90;;;;;;5024869;28;20027;-49
2022/10/16 03:50:44;;;;;;;3.22;1.50;;;11.60;99.90;;;;;;5018597;28;20392;-53
2022/10/16 03:53:10;;;;;;;4.13;1.77;;;11.60;99.90;;;;;;5020764;28;20026;-51
2022/10/16 03:55:36;;;;;;;1.83;1.50;;;11.60;99.90;;;;;;5022008;28;20496;-57
2022/10/16 03:58:01;;;;;;;2.30;1.42;;;11.50;99.90;;;;;;5017839;28;20049;-51
2022/10/16 04:00:28;;;;;;;4.28;1.58;;;11.60;99.90;;;;;;5018165;28;20463;-55
2022/10/16 04:02:54;;;;;;;2.80;1.35;;;11.60;99.90;;;;;;5016615;28;20061;-51
2022/10/16 04:05:19;;;;;;;3.20;1.60;;;11.60;99.90;;;;;;5023339;28;20072;-54
2022/10/16 04:07:45;;;;;;;2.45;1.45;;;11.50;99.90;;;;;;5016706;28;20724;-54
2022/10/16 04:10:10;;;;;;;3.35;1.88;;;11.60;99.90;;;;;;5018955;28;20365;-52
2022/10/16 04:12:36;;;;;;;2.70;1.92;;;11.60;99.90;;;;;;5016150;28;20049;-51
2022/10/16 04:15:02;;;;;;;2.90;1.00;;;11.60;99.90;;;;;;5017586;28;20049;-52
2022/10/16 04:17:28;;;;;;;8.32;1.40;;;11.60;99.90;;;;;;5014716;28;20026;-54
2022/10/16 04:19:53;;;;;;;1.52;1.17;;;11.60;99.90;;;;;;5019607;28;20045;-54
2022/10/16 04:22:19;;;;;;;4.53;1.73;;;11.60;99.90;;;;;;5020664;28;20047;-53
2022/10/16 04:24:44;;;;;;;2.47;1.17;;;11.60;99.90;;;;;;5019745;28;20030;-50
2022/10/16 04:27:10;;;;;;;3.40;1.55;;;11.60;99.90;;;;;;5015910;28;20052;-54
2022/10/16 04:29:35;;;;;;;2.70;1.40;;;11.60;99.90;;;;;;5013292;28;20028;-51
2022/10/16 04:32:01;;;;;;;1.60;1.10;;;11.60;99.90;;;;;;5019435;28;20289;-50
2022/10/16 04:34:26;;;;;;;2.95;1.85;;;11.60;99.90;;;;;;5018687;28;20043;-52
2022/10/16 04:36:52;;;;;;;5.13;1.33;;;11.60;99.90;;;;;;5019631;28;20468;-53
2022/10/16 04:39:18;;;;;;;2.30;1.25;;;11.60;99.90;;;;;;5017519;28;20337;-51
2022/10/16 04:41:43;;;;;;;3.08;2.53;;;11.60;99.90;;;;;;5017122;28;20491;-50
2022/10/16 04:44:09;;;;;;;5.10;1.83;;;11.50;99.90;;;;;;5020126;28;20069;-50
2022/10/16 04:46:34;;;;;;;5.18;1.70;;;11.50;99.90;;;;;;5020737;28;20029;-58
2022/10/16 04:49:00;;;;;;;7.07;1.58;;;11.50;99.90;;;;;;5019322;28;20400;-50
2022/10/16 04:51:27;;;;;;;5.80;1.17;;;11.50;99.90;;;;;;5019204;28;20440;-53
2022/10/16 04:53:54;;;;;;;3.28;1.30;;;11.50;99.90;;;;;;5020673;28;20024;-54
2022/10/16 04:56:20;;;;;;;3.20;1.10;;;11.40;99.90;;;;;;5020597;28;20014;-50
2022/10/16 04:58:46;;;;;;;3.28;1.65;;;11.40;99.90;;;;;;5017450;28;20084;-50
2022/10/16 05:01:11;;;;;;;1.42;1.33;;;11.40;99.90;;;;;;5017433;28;20033;-53
2022/10/16 05:03:37;;;;;;;2.47;1.30;;;11.40;99.90;;;;;;5009615;28;20087;-56
2022/10/16 05:06:05;;;;;;;5.15;1.40;;;11.50;99.90;;;;;;5018567;28;20183;-51
2022/10/16 05:08:31;;;;;;;3.47;1.80;;;11.40;99.90;;;;;;5020962;28;20026;-53
2022/10/16 05:10:57;;;;;;;7.43;1.65;;;11.40;99.90;;;;;;5018793;28;20109;-51
2022/10/16 05:13:23;;;;;;;8.00;2.38;;;11.50;99.90;;;;;;5019603;28;20430;-50
2022/10/16 05:15:48;;;;;;;12.05;2.00;;;11.50;99.90;;;;;;5020523;28;20093;-49
2022/10/16 05:18:15;;;;;;;4.30;1.42;;;11.40;99.90;;;;;;5015661;28;20402;-50
2022/10/16 05:20:41;;;;;;;4.32;1.77;;;11.50;99.90;;;;;;5020551;28;20029;-53
2022/10/16 05:23:07;;;;;;;2.80;1.80;;;11.50;99.90;;;;;;5011519;28;20045;-51
2022/10/16 05:25:32;;;;;;;3.67;2.00;;;11.50;99.90;;;;;;5020409;28;20388;-54
2022/10/16 05:27:58;;;;;;;7.07;1.90;;;11.50;99.90;;;;;;5018700;28;20400;-53
2022/10/16 05:30:23;;;;;;;6.93;2.15;;;11.50;99.90;;;;;;5019771;28;20384;-54
2022/10/16 05:32:50;;;;;;;4.50;2.25;;;11.50;99.90;;;;;;5012029;28;20101;-54
2022/10/16 05:35:17;;;;;;;2.90;1.85;;;11.60;99.90;;;;;;5020425;28;20021;-54
2022/10/16 05:37:43;;;;;;;5.70;2.60;;;11.60;99.90;;;;;;5019996;28;20120;-51
2022/10/16 05:40:09;;;;;;;3.38;2.60;;;11.60;99.90;;;;;;5020139;28;20112;-53
2022/10/16 05:42:35;;;;;;;7.20;3.28;;;11.70;99.90;;;;;;5019921;28;20034;-51
2022/10/16 05:45:00;;;;;;;4.20;2.15;;;11.70;99.90;;;;;;5018440;28;20087;-54
2022/10/16 05:47:26;;;;;;;5.38;3.15;;;11.70;99.90;;;;;;5019394;28;20022;-52
2022/10/16 05:49:52;;;;;;;4.18;2.42;;;11.70;99.90;;;;;;5016554;28;20112;-53
2022/10/16 05:52:17;;;;;;;6.00;2.92;;;11.70;99.90;;;;;;5021262;28;20025;-52
2022/10/16 05:54:43;;;;;;;4.30;2.83;;;11.70;99.90;;;;;;5020181;28;20080;-51
2022/10/16 05:57:09;;;;;;;4.53;3.33;;;11.70;99.90;;;;;;5024750;28;20044;-51
2022/10/16 05:59:34;;;;;;;6.18;2.53;;;11.80;99.90;;;;;;5021440;28;20021;-51
2022/10/16 06:02:00;;;;;;;3.88;2.70;;;11.70;99.90;;;;;;5022688;28;20021;-52
2022/10/16 06:04:25;;;;;;;6.10;3.55;;;11.70;99.90;;;;;;5017001;28;20518;-52
2022/10/16 06:06:51;;;;;;;4.22;2.70;;;11.70;99.90;;;;;;5018517;28;20378;-54
2022/10/16 06:09:17;;;;;;;4.45;2.60;;;11.70;99.90;;;;;;5022730;28;20039;-53
2022/10/16 06:11:42;;;;;;;7.30;2.75;;;11.70;99.90;;;;;;5016451;28;20268;-52
2022/10/16 06:14:08;;;;;;;4.13;2.13;;;11.70;99.90;;;;;;5026452;28;20021;-51
2022/10/16 06:16:36;;;;;;;3.22;2.47;;;11.70;99.90;;;;;;5017771;28;20049;-53
2022/10/16 06:19:04;;;;;;;4.85;2.45;;;11.80;99.90;;;;;;5026889;28;20500;-54
2022/10/16 06:21:29;;;;;;;8.68;2.58;;;11.70;99.90;;;;;;5019218;28;20025;-55
2022/10/16 06:23:56;;;;;;;4.88;2.30;;;11.70;99.90;;;;;;5021000;28;20038;-52
2022/10/16 06:26:25;;;;;;;7.43;2.00;;;11.80;99.90;;;;;;5016313;28;20033;-54
2022/10/16 06:28:51;;;;;;;9.93;2.28;;;11.80;99.90;;;;;;5012936;28;20022;-53
2022/10/16 06:31:17;;;;;;;4.05;2.10;;;11.80;99.90;;;;;;5025401;28;20025;-59
2022/10/16 06:33:43;;;;;;;5.63;2.50;;;11.80;99.90;;;;;;5019517;28;20410;-56
2022/10/16 06:36:14;;;;;;;4.30;2.17;;;11.80;99.90;;;;;;5026541;28;20060;-54
2022/10/16 06:38:40;;;;;;;3.17;2.28;;;11.80;99.90;;;;;;5019279;28;20334;-52
2022/10/16 06:41:07;;;;;;;4.47;2.22;;;11.90;99.90;;;;;;5027453;28;20045;-55
2022/10/16 06:43:35;;;;;;;2.45;2.10;;;11.90;99.90;;;;;;5017596;28;20025;-55
2022/10/16 06:46:01;;;;;;;5.47;2.55;;;11.90;99.90;;;;;;5019137;28;20026;-55
2022/10/16 06:48:28;;;;;;;4.40;2.40;;;11.90;99.90;;;;;;5023298;28;20100;-53
2022/10/16 06:51:12;;;;;;;5.30;2.97;;;11.90;99.90;;;;;;5020014;28;20479;-54
2022/10/16 06:53:40;;;;;;;5.32;2.33;;;12.00;99.90;;;;;;5023210;28;20018;-54
2022/10/16 06:56:11;;;;;;;4.82;2.55;;;12.00;99.90;;;;;;5021605;28;20022;-54
2022/10/16 06:58:37;;;;;;;4.50;2.15;;;12.10;99.90;;;;;;5024050;28;20140;-55
2022/10/16 07:01:04;;;;;;;6.28;2.38;;;12.10;99.90;;;;;;5015047;28;20401;-51
2022/10/16 07:03:30;;;;;;;3.72;2.03;;;12.20;99.90;;;;;;5020688;28;20014;-51
2022/10/16 07:05:56;;;;;;;4.50;3.00;;;12.30;99.90;;;;;;5019761;28;20104;-56
2022/10/16 07:08:21;;;;;;;4.95;2.20;;;12.30;99.90;;;;;;5019887;28;20056;-56
2022/10/16 07:10:47;;;;;;;4.22;2.50;;;12.40;99.90;;;;;;5020488;28;20056;-51
2022/10/16 07:13:14;;;;;;;4.70;2.70;;;12.50;99.90;;;;;;5019098;28;20140;-51
2022/10/16 07:15:39;;;;;;;6.38;3.03;;;12.60;99.90;;;;;;5021190;28;20032;-52
2022/10/16 07:18:05;;;;;;;4.70;2.72;;;12.80;99.90;;;;;;5017257;28;20022;-53
2022/10/16 07:20:31;;;;;;;7.03;2.45;;;12.80;99.90;;;;;;5015278;28;20109;-55
2022/10/16 07:22:56;;;;;;;3.47;2.70;;;12.90;99.90;;;;;;5039619;22;20058;-47
2022/10/16 07:25:22;;;;;;;4.10;2.50;;;12.90;99.90;;;;;;5021339;28;20027;-49
2022/10/16 07:27:47;;;;;;;2.95;2.47;;;13.00;99.90;;;;;;5009879;28;20397;-49
2022/10/16 07:30:13;;;;;;;9.55;3.17;;;13.00;99.90;;;;;;5005102;28;20030;-52
2022/10/16 07:32:38;;;;;;;3.58;2.83;;;13.10;99.90;;;;;;5010463;28;20049;-49
2022/10/16 07:35:05;;;;;;;5.75;3.10;;;13.10;99.90;;;;;;5000536;28;20019;-48
2022/10/16 07:37:30;;;;;;;4.47;2.50;;;13.20;99.90;;;;;;5000643;28;20072;-49
2022/10/16 07:39:56;;;;;;;4.30;2.20;;;13.30;99.90;;;;;;4997432;28;20489;-50
2022/10/16 07:42:21;;;;;;;4.32;2.78;;;13.30;99.90;;;;;;5007032;28;20088;-52
2022/10/16 07:44:47;;;;;;;5.35;3.03;;;13.40;99.90;;;;;;5000524;28;20413;-48
2022/10/16 07:47:12;;;;;;;7.88;3.30;;;13.40;99.90;;;;;;5000000;28;20144;-49
2022/10/16 07:49:38;;;;;;;4.78;3.58;;;13.50;99.90;;;;;;5001231;28;20026;-49
2022/10/16 07:52:03;;;;;;;4.47;2.45;;;13.50;99.90;;;;;;5000248;28;20022;-48
2022/10/16 07:54:29;;;;;;;6.35;2.65;;;13.50;99.90;;;;;;5003956;28;20017;-48
2022/10/16 07:56:55;;;;;;;3.28;2.53;;;13.60;99.90;;;;;;4997402;28;20045;-49
2022/10/16 07:59:20;;;;;;;3.40;2.85;;;13.60;99.90;;;;;;5006483;28;20033;-51
2022/10/16 08:01:46;;;;;;;5.82;2.67;;;13.60;99.90;;;;;;4997673;28;20392;-49
2022/10/16 08:04:11;;;;;;;5.05;3.03;;;13.60;99.90;;;;;;4998415;28;20396;-47
2022/10/16 08:06:39;;;;;;;4.50;3.08;;;13.60;99.90;;;;;;5005565;28;20051;-48
2022/10/16 08:09:06;;;;;;;7.80;3.03;;;13.60;99.90;;;;;;5000921;28;20073;-52
2022/10/16 08:11:32;;;;;;;4.10;2.80;;;13.60;99.90;;;;;;4995254;28;20037;-49
2022/10/16 08:13:58;;;;;;;5.00;2.97;;;13.60;99.90;;;;;;5005694;28;20109;-48
2022/10/16 08:16:24;;;;;;;4.55;2.38;;;13.60;99.90;;;;;;5001254;28;20064;-54
2022/10/16 08:18:51;;;;;;;4.03;3.17;;;13.60;99.90;;;;;;5005223;28;20058;-51
2022/10/16 08:21:18;;;;;;;2.63;2.20;;;13.60;99.90;;;;;;5004067;28;20072;-48
2022/10/16 08:23:44;;;;;;;4.20;2.85;;;13.70;99.90;;;;;;5002521;28;20396;-48
2022/10/16 08:26:10;;;;;;;3.95;3.13;;;13.70;99.90;;;;;;5006362;28;20022;-49
2022/10/16 08:28:37;;;;;;;3.83;3.17;;;13.80;99.90;;;;;;4991146;28;20057;-49
2022/10/16 08:31:14;;;;;;;4.75;3.20;;;13.80;99.90;;;;;;5006273;28;20056;-50
2022/10/16 08:33:42;;;;;;;9.15;3.22;;;13.80;99.90;;;;;;4999656;28;20057;-49
2022/10/16 08:36:11;;;;;;;4.00;2.70;;;13.90;99.90;;;;;;5003650;28;20353;-47
2022/10/16 08:38:37;;;;;;;3.25;2.70;;;14.10;99.90;;;;;;5000935;28;20496;-48
2022/10/16 08:41:32;;;;;;;4.68;2.97;;;14.10;99.90;;;;;;5007756;28;20069;-47
2022/10/16 08:44:06;;;;;;;4.65;3.13;;;14.20;99.90;;;;;;4971365;28;20041;-50
2022/10/16 08:46:40;;;;;;;6.88;3.78;;;14.30;99.90;;;;;;5000610;28;20061;-50
2022/10/16 08:49:12;;;;;;;4.63;2.60;;;14.30;99.90;;;;;;5000621;28;20022;-50
2022/10/16 08:51:38;;;;;;;5.68;2.78;;;14.30;99.90;;;;;;4994010;28;20031;-48
2022/10/16 08:54:06;;;;;;;2.70;2.40;;;14.30;99.90;;;;;;5019269;28;20030;-47
2022/10/16 08:56:33;;;;;;;3.05;2.53;;;14.30;99.90;;;;;;4997867;28;20022;-48
2022/10/16 08:58:59;;;;;;;3.70;2.78;;;14.40;99.90;;;;;;5004115;28;20045;-50
2022/10/16 09:01:39;;;;;;;4.93;2.60;;;14.40;99.90;;;;;;4998910;28;20023;-51
2022/10/16 09:04:53;;;;;;;5.18;2.47;;;14.50;99.90;;;;;;4998757;28;20026;-52
2022/10/16 09:07:27;;;;;;;4.43;2.47;;;14.50;99.90;;;;;;4929319;28;20122;-51
2022/10/16 09:10:27;;;;;;;2.92;2.65;;;14.50;99.90;;;;;;4999752;28;20081;-49
2022/10/16 09:13:29;;;;;;;3.40;2.63;;;14.50;99.90;;;;;;4998782;28;20108;-51
2022/10/16 09:16:30;;;;;;;3.95;2.58;;;14.50;99.90;;;;;;5004184;28;20399;-50
2022/10/16 09:19:02;;;;;;;6.22;2.58;;;14.50;99.90;;;;;;4999194;28;20042;-48
2022/10/16 09:21:35;;;;;;;4.45;1.85;;;14.50;99.90;;;;;;4999560;28;20117;-49
2022/10/16 09:24:20;;;;;;;4.35;1.90;;;14.50;99.90;;;;;;5003311;28;20030;-54
2022/10/16 09:26:46;;;;;;;5.28;2.33;;;14.60;99.90;;;;;;5003224;28;20026;-48
2022/10/16 09:29:24;;;;;;;4.53;2.05;;;14.60;99.90;;;;;;5004559;28;20277;-49
2022/10/16 09:31:51;;;;;;;5.03;1.80;;;14.60;99.90;;;;;;5006010;28;20017;-48
2022/10/16 09:34:26;;;;;;;2.33;1.58;;;14.80;99.90;;;;;;5005450;28;20571;-51
2022/10/16 09:36:52;;;;;;;2.97;1.92;;;14.80;99.90;;;;;;5007148;28;20376;-49
2022/10/16 09:39:17;;;;;;;2.88;1.90;;;15.00;99.90;;;;;;5006378;28;20024;-49
2022/10/16 09:41:45;;;;;;;3.00;1.75;;;15.00;99.90;;;;;;5009907;28;20030;-51
2022/10/16 09:44:31;;;;;;;4.22;1.40;;;15.00;99.90;;;;;;5006817;28;20026;-50
2022/10/16 09:47:14;;;;;;;2.90;1.85;;;15.10;99.90;;;;;;5002569;28;20495;-51
2022/10/16 09:49:59;;;;;;;1.75;1.60;;;15.10;99.90;;;;;;4997321;28;20100;-48
2022/10/16 09:52:25;;;;;;;3.90;1.60;;;15.20;99.90;;;;;;5001432;28;20018;-50
2022/10/16 09:55:15;;;;;;;3.33;1.45;;;15.30;99.90;;;;;;5008534;28;20118;-51
2022/10/16 09:57:53;;;;;;;6.30;1.75;;;15.40;99.90;;;;;;5007174;28;20022;-47
2022/10/16 10:00:21;;;;;;;7.15;2.53;;;15.40;99.90;;;;;;4998991;28;20058;-51
2022/10/16 10:02:47;;;;;;;7.28;1.80;;;15.40;99.90;;;;;;4997671;28;20038;-52
2022/10/16 10:05:29;;;;;;;4.03;1.42;;;15.50;99.90;;;;;;5009876;28;20021;-48
2022/10/16 10:08:00;;;;;;;4.88;1.55;;;15.50;99.90;;;;;;4999785;28;20050;-48
2022/10/16 10:10:27;;;;;;;7.82;1.40;;;15.50;99.90;;;;;;5004806;28;20018;-52
2022/10/16 10:12:55;;;;;;;4.32;1.70;;;15.60;99.90;;;;;;4998198;28;20033;-49
2022/10/16 10:15:23;;;;;;;4.15;2.15;;;15.70;99.90;;;;;;5003628;28;20113;-52
2022/10/16 10:17:54;;;;;;;4.55;1.10;;;15.70;99.90;;;;;;5003189;28;20034;-51
2022/10/16 10:20:38;;;;;;;5.43;2.00;;;15.70;99.90;;;;;;4998207;28;20384;-51
2022/10/16 10:23:26;;;;;;;4.93;1.35;;;15.70;99.90;;;;;;5003205;28;20045;-49
2022/10/16 10:25:55;;;;;;;2.53;1.27;;;15.80;99.90;;;;;;5007479;28;20034;-48
2022/10/16 10:28:39;;;;;;;5.97;1.58;;;15.80;99.90;;;;;;5002375;28;20049;-52
2022/10/16 10:31:20;;;;;;;1.73;1.25;;;15.80;99.90;;;;;;5008131;28;20022;-51
2022/10/16 10:34:04;;;;;;;2.70;1.58;;;15.90;99.90;;;;;;4987921;28;20022;-49
2022/10/16 10:36:37;;;;;;;3.45;1.30;;;15.90;99.90;;;;;;5000658;28;20459;-51
2022/10/16 10:39:08;;;;;;;3.33;1.25;;;16.00;99.90;;;;;;5002655;28;20031;-53
2022/10/16 10:42:09;;;;;;;3.17;1.13;;;16.00;99.90;;;;;;5009849;28;20033;-51
2022/10/16 10:44:49;;;;;;;5.45;1.40;;;16.00;99.90;;;;;;5009163;28;20030;-50
2022/10/16 10:47:40;;;;;;;4.97;1.08;;;16.00;99.90;;;;;;5000760;28;20592;-51
2022/10/16 10:50:39;;;;;;;2.75;1.00;;;16.00;99.90;;;;;;4995694;28;20045;-48
2022/10/16 10:53:44;;;;;;;4.95;1.30;;;16.00;99.90;;;;;;5003740;28;20500;-49
2022/10/16 10:56:23;;;;;;;2.00;1.45;;;16.00;99.90;;;;;;4968032;28;20052;-51
2022/10/16 10:59:30;;;;;;;3.60;1.15;;;16.00;99.90;;;;;;5007837;28;20014;-49
2022/10/16 11:02:20;;;;;;;4.78;1.23;;;16.10;99.90;;;;;;4991375;28;20044;-50
2022/10/16 11:04:52;;;;;;;3.50;1.48;;;16.10;99.90;;;;;;5002795;28;20022;-53
2022/10/16 11:07:36;;;;;;;4.60;1.98;;;16.10;99.90;;;;;;4997438;28;20030;-50
2022/10/16 11:10:15;;;;;;;4.97;1.73;;;16.20;99.90;;;;;;4999652;28;20105;-51
2022/10/16 11:12:46;;;;;;;5.95;1.38;;;16.20;99.90;;;;;;4996226;28;20025;-53
2022/10/16 11:15:14;;;;;;;2.40;1.50;;;16.20;99.90;;;;;;5002617;28;20022;-48
2022/10/16 11:18:07;;;;;;;2.33;0.80;;;16.30;99.90;;;;;;5003643;28;20117;-53
2022/10/16 11:20:44;;;;;;;3.80;1.20;;;16.30;99.90;;;;;;4990002;28;20038;-52
2022/10/16 11:23:19;;;;;;;2.83;0.80;;;16.40;99.90;;;;;;5002172;28;20137;-49
2022/10/16 11:25:46;;;;;;;2.70;1.00;;;16.50;99.90;;;;;;5002436;28;20056;-53
2022/10/16 11:28:24;;;;;;;2.33;0.93;;;16.50;99.90;;;;;;5000606;28;20041;-50
2022/10/16 11:31:00;;;;;;;4.68;1.00;;;16.50;99.90;;;;;;5002418;28;20021;-49
2022/10/16 11:33:37;;;;;;;7.25;1.48;;;16.60;99.90;;;;;;5001671;28;20477;-53
2022/10/16 11:36:18;;;;;;;4.78;1.27;;;16.70;99.90;;;;;;5007857;28;20420;-49
2022/10/16 11:39:17;;;;;;;8.45;2.20;;;16.70;99.90;;;;;;4999205;28;20477;-49
2022/10/16 11:41:50;;;;;;;3.08;1.33;;;16.70;99.90;;;;;;5000011;28;20133;-53
2022/10/16 11:44:43;;;;;;;7.10;1.20;;;16.60;99.90;;;;;;4985331;28;20025;-50
2022/10/16 11:47:19;;;;;;;2.67;0.75;;;16.60;99.90;;;;;;5000838;28;20034;-53
2022/10/16 11:49:45;;;;;;;;;;;16.60;99.90;;;;;;5002144;28;20026;-50
2022/10/16 11:52:23;;;;;;;2.65;0.70;;;16.40;99.90;;;;;;5000684;28;19906;-48
2022/10/16 11:54:54;;;;;;;1.30;0.60;;;16.40;99.90;;;;;;5002710;28;20436;-53
2022/10/16 11:57:38;;;;;;;3.10;0.77;;;16.40;99.90;;;;;;5001184;28;20026;-54
2022/10/16 12:00:26;;;;;;;5.82;1.05;;;16.30;99.90;;;;;;5002608;28;20033;-53
2022/10/16 12:02:59;;;;;;;3.97;1.20;;;16.40;99.90;;;;;;4994954;28;20018;-52
2022/10/16 12:05:35;;;;;;;6.53;1.10;;;16.40;99.90;;;;;;4998375;28;20025;-53
2022/10/16 12:08:10;;;;;;;;;;;16.50;99.90;;;;;;4993778;28;20038;-52
2022/10/16 12:10:36;;;;;;;4.13;1.27;;;16.50;99.90;;;;;;4999611;28;20327;-52
2022/10/16 12:13:03;;;;;;;3.38;0.90;;;16.50;99.90;;;;;;4998828;28;20073;-52
2022/10/16 12:15:32;;;;;;;2.75;0.63;;;16.50;99.90;;;;;;5002133;28;20027;-49
2022/10/16 12:17:58;;;;;;;10.35;1.15;;;16.60;99.90;;;;;;4999386;28;20033;-51
2022/10/16 12:20:36;;;;;;;7.00;0.70;;;16.70;99.90;;;;;;5002516;28;20045;-52
2022/10/16 12:23:06;;;;;;;5.43;0.93;;;16.80;99.90;;;;;;5014265;28;20033;-52
2022/10/16 12:25:39;;;;;;;5.50;1.75;;;16.90;99.90;;;;;;5003550;28;20026;-51
2022/10/16 12:28:31;;;;;;;1.52;0.95;;;16.90;99.90;;;;;;4999980;28;20108;-49
2022/10/16 12:31:01;;;;;;;4.25;1.42;;;16.80;99.90;;;;;;4998348;28;20030;-51
2022/10/16 12:33:31;;;;;;;5.60;1.13;;;16.80;99.90;;;;;;5001269;28;20036;-52
2022/10/16 12:35:59;;;;;;;1.77;1.13;;;16.70;99.90;;;;;;4996313;28;20451;-54
2022/10/16 12:38:46;;;;;;;3.25;0.90;;;16.70;99.90;;;;;;5003252;28;20433;-48
2022/10/16 12:41:14;;;;;;;4.25;0.70;;;16.50;99.90;;;;;;5005852;28;20129;-50
2022/10/16 12:43:47;;;;;;;3.72;0.90;;;16.40;99.90;;;;;;4998294;28;20030;-52
2022/10/16 12:46:13;;;;;;;3.80;1.13;;;16.40;99.90;;;;;;5001652;28;20571;-49
2022/10/16 12:48:41;;;;;;;2.25;0.70;;;16.40;99.90;;;;;;5001172;28;20034;-48
2022/10/16 12:51:41;;;;;;;4.20;1.48;;;16.40;99.90;;;;;;5001612;28;20022;-53
2022/10/16 12:54:14;;;;;;;0.60;0.52;;;16.40;99.90;;;;;;4996970;28;20038;-52
2022/10/16 12:56:54;;;;;;;5.32;0.80;;;16.40;99.90;;;;;;4998838;28;20378;-51
2022/10/16 12:59:39;;;;;;;4.25;0.82;;;16.50;99.90;;;;;;5001586;28;20045;-47
2022/10/16 13:02:33;;;;;;;3.88;1.40;;;16.60;99.90;;;;;;5004511;28;20432;-49
2022/10/16 13:05:15;;;;;;;3.08;1.00;;;16.70;99.90;;;;;;5007514;28;20091;-48
2022/10/16 13:07:43;;;;;;;15.20;1.65;;;16.70;99.90;;;;;;5002588;28;20030;-48